createdAt,value
2019-01-25T00:00:26.150Z,60.53
2019-01-25T00:03:48.618Z,57.03
2019-01-25T00:07:11.161Z,61.90
2019-01-25T00:10:34.086Z,59.20
2019-01-25T00:13:56.592Z,64.30
2019-01-25T00:17:18.765Z,61.97
2019-01-25T00:20:41.866Z,64.27
2019-01-25T00:24:05.159Z,61.30
2019-01-25T00:27:27.628Z,62.07
2019-01-25T00:30:50.569Z,65.53
2019-01-25T00:34:13.265Z,62.13
2019-01-25T00:37:35.806Z,59.30
2019-01-25T00:40:58.703Z,69.03
2019-01-25T00:44:21.311Z,62.20
2019-01-25T00:47:44.022Z,59.57
2019-01-25T00:51:06.785Z,61.37
2019-01-25T00:54:28.937Z,61.47
2019-01-25T00:57:51.456Z,59.83
2019-01-25T01:01:14.185Z,62.80
2019-01-25T01:04:36.589Z,60.63
2019-01-25T01:07:58.973Z,63.23
2019-01-25T01:11:21.418Z,58.47
2019-01-25T01:14:43.866Z,57.97
2019-01-25T01:18:06.270Z,56.57
2019-01-25T01:21:28.710Z,64.23
2019-01-25T01:24:51.181Z,57.03
2019-01-25T01:28:13.582Z,61.10
2019-01-25T01:31:35.691Z,57.00
2019-01-25T01:34:58.211Z,61.67
2019-01-25T01:38:20.365Z,57.47
2019-01-25T01:41:42.913Z,61.30
2019-01-25T01:45:06.708Z,58.33
2019-01-25T01:48:29.341Z,57.83
2019-01-25T01:51:51.846Z,60.37
2019-01-25T01:55:15.169Z,55.60
2019-01-25T01:58:37.680Z,58.87
2019-01-25T02:02:00.234Z,51.70
2019-01-25T02:05:22.970Z,60.73
2019-01-25T02:08:45.585Z,53.27
2019-01-25T02:12:08.571Z,58.67
2019-01-25T02:15:31.509Z,56.70
2019-01-25T02:18:54.298Z,59.47
2019-01-25T02:22:17.089Z,55.93
2019-01-25T02:25:39.666Z,53.20
2019-01-25T02:29:02.437Z,56.27
2019-01-25T02:32:24.729Z,52.27
2019-01-25T02:35:47.125Z,54.97
2019-01-25T02:39:09.364Z,52.40
2019-01-25T02:42:33.260Z,53.77
2019-01-25T02:45:56.274Z,51.43
2019-01-25T02:49:18.424Z,59.43
2019-01-25T02:52:40.747Z,52.63
2019-01-25T02:56:03.044Z,52.83
2019-01-25T02:59:25.120Z,53.40
2019-01-25T03:02:47.722Z,54.87
2019-01-25T03:06:10.361Z,51.93
2019-01-25T03:09:32.778Z,55.43
2019-01-25T03:12:55.578Z,58.17
2019-01-25T03:16:17.721Z,48.77
2019-01-25T03:19:40.424Z,49.17
2019-01-25T03:23:02.986Z,53.33
2019-01-25T03:26:25.049Z,51.33
2019-01-25T03:29:47.094Z,53.90
2019-01-25T03:33:09.680Z,48.83
2019-01-25T03:36:32.206Z,50.03
2019-01-25T03:39:54.416Z,49.40
2019-01-25T03:43:17.026Z,49.40
2019-01-25T03:46:39.749Z,49.97
2019-01-25T03:50:02.577Z,53.00
2019-01-25T03:53:25.260Z,50.33
2019-01-25T03:56:48.004Z,47.97
2019-01-25T04:00:14.481Z,49.77
2019-01-25T04:03:37.264Z,52.70
2019-01-25T04:06:59.877Z,52.33
2019-01-25T04:10:23.861Z,53.67
2019-01-25T04:13:46.504Z,51.83
2019-01-25T04:17:09.348Z,59.50
2019-01-25T04:20:32.091Z,59.50
2019-01-25T04:23:54.705Z,59.03
2019-01-25T04:27:17.508Z,64.53
2019-01-25T04:30:40.134Z,60.97
2019-01-25T04:34:03.019Z,65.30
2019-01-25T04:37:25.558Z,63.73
2019-01-25T04:40:48.373Z,64.57
2019-01-25T04:44:11.026Z,62.83
2019-01-25T04:47:33.701Z,57.17
2019-01-25T04:50:56.130Z,63.83
2019-01-25T04:54:18.541Z,63.30
2019-01-25T04:57:41.027Z,62.83
2019-01-25T05:01:09.262Z,58.50
2019-01-25T05:04:35.926Z,63.27
2019-01-25T05:08:16.304Z,61.13
2019-01-25T05:11:38.810Z,73.33
2019-01-25T05:15:01.578Z,71.57
2019-01-25T05:18:24.137Z,68.47
2019-01-25T05:21:46.788Z,78.40
2019-01-25T05:25:09.441Z,72.23
2019-01-25T05:28:31.826Z,67.30
2019-01-25T05:31:54.338Z,74.07
2019-01-25T05:35:16.866Z,70.40
2019-01-25T05:38:45.845Z,73.47
2019-01-25T05:42:08.393Z,67.73
2019-01-25T05:45:30.820Z,68.20
2019-01-25T05:48:53.525Z,73.57
2019-01-25T05:52:19.386Z,79.97
2019-01-25T05:55:41.813Z,73.23
2019-01-25T05:59:04.534Z,75.93
2019-01-25T06:02:27.055Z,81.10
2019-01-25T06:05:49.720Z,83.43
2019-01-25T06:09:13.656Z,81.97
2019-01-25T06:12:35.789Z,78.20
2019-01-25T06:15:58.528Z,83.63
2019-01-25T06:19:20.744Z,88.20
2019-01-25T06:22:43.414Z,78.40
2019-01-25T06:26:07.053Z,78.27
2019-01-25T06:29:32.857Z,76.80
2019-01-25T06:32:55.583Z,77.07
2019-01-25T06:36:18.292Z,80.83
2019-01-25T06:39:41.157Z,83.63
2019-01-25T06:43:03.222Z,80.43
2019-01-25T06:46:25.745Z,90.50
2019-01-25T06:49:48.222Z,84.00
2019-01-25T06:53:10.436Z,90.23
2019-01-25T06:56:32.815Z,85.47
2019-01-25T06:59:55.488Z,89.43
2019-01-25T07:03:17.990Z,86.67
2019-01-25T07:06:40.218Z,87.77
2019-01-25T07:10:08.316Z,94.80
2019-01-25T07:13:30.976Z,96.07
2019-01-25T07:16:53.524Z,89.70
2019-01-25T07:20:16.413Z,96.30
2019-01-25T07:23:38.834Z,96.67
2019-01-25T07:27:01.617Z,94.47
2019-01-25T07:30:24.146Z,104.50
2019-01-25T07:33:46.682Z,98.87
2019-01-25T07:37:09.253Z,91.23
2019-01-25T07:40:31.569Z,88.37
2019-01-25T07:43:53.838Z,89.30
2019-01-25T07:47:16.465Z,80.10
2019-01-25T07:50:38.828Z,76.80
2019-01-25T07:54:01.670Z,70.67
2019-01-25T07:57:24.377Z,75.20
2019-01-25T08:00:47.229Z,75.53
2019-01-25T08:04:09.942Z,76.43
2019-01-25T08:07:32.462Z,71.70
2019-01-25T08:10:55.261Z,81.93
2019-01-25T08:14:17.684Z,56.43
2019-01-25T08:17:40.053Z,64.90
2019-01-25T08:21:02.632Z,66.07
2019-01-25T08:24:25.021Z,59.37
2019-01-25T08:27:47.465Z,58.40
2019-01-25T08:31:10.103Z,69.43
2019-01-25T08:34:32.452Z,64.20
2019-01-25T08:37:55.021Z,64.10
2019-01-25T08:41:17.781Z,54.47
2019-01-25T08:44:40.239Z,64.53
2019-01-25T08:48:03.089Z,66.27
2019-01-25T08:51:25.934Z,67.80
2019-01-25T08:54:48.343Z,61.87
2019-01-25T08:58:10.878Z,56.97
2019-01-25T09:01:33.309Z,56.17
2019-01-25T09:04:55.986Z,58.77
2019-01-25T09:08:18.408Z,63.10
2019-01-25T09:11:40.813Z,61.73
2019-01-25T09:15:03.271Z,72.47
2019-01-25T09:18:26.090Z,71.63
2019-01-25T09:21:48.752Z,64.50
2019-01-25T09:25:11.600Z,68.87
2019-01-25T09:28:33.918Z,66.53
2019-01-25T09:31:56.593Z,60.30
2019-01-25T09:35:19.596Z,60.27
2019-01-25T09:38:42.322Z,61.77
2019-01-25T09:42:05.195Z,58.87
2019-01-25T09:45:28.121Z,59.63
2019-01-25T09:48:50.977Z,54.00
2019-01-25T09:52:13.488Z,55.33
2019-01-25T09:55:36.211Z,58.27
2019-01-25T09:58:58.757Z,57.10
2019-01-25T10:02:21.156Z,56.27
2019-01-25T10:05:43.276Z,57.13
2019-01-25T10:09:08.734Z,57.93
2019-01-25T10:12:34.920Z,57.07
2019-01-25T10:15:54.880Z,56.77
2019-01-25T10:19:17.375Z,57.23
2019-01-25T10:22:39.977Z,53.40
2019-01-25T10:26:02.604Z,52.13
2019-01-25T10:29:25.398Z,54.23
2019-01-25T10:32:47.825Z,54.23
2019-01-25T10:36:10.582Z,52.13
2019-01-25T10:39:33.060Z,56.57
2019-01-25T10:42:55.472Z,60.17
2019-01-25T10:46:17.897Z,56.17
2019-01-25T10:49:40.559Z,59.00
2019-01-25T10:53:03.026Z,56.47
2019-01-25T10:56:25.196Z,54.30
2019-01-25T10:59:47.621Z,52.10
2019-01-25T11:03:10.215Z,52.80
2019-01-25T11:06:32.962Z,50.43
2019-01-25T11:09:55.215Z,46.43
2019-01-25T11:13:18.001Z,50.83
2019-01-25T11:16:40.765Z,54.23
2019-01-25T11:20:03.390Z,54.67
2019-01-25T11:23:26.129Z,49.73
2019-01-25T11:26:48.846Z,54.43
2019-01-25T11:30:12.922Z,51.70
2019-01-25T11:33:35.425Z,52.50
2019-01-25T11:36:58.220Z,45.13
2019-01-25T11:40:30.186Z,53.67
2019-01-25T11:43:52.925Z,47.53
2019-01-25T11:47:15.426Z,52.07
2019-01-25T11:50:38.136Z,46.17
2019-01-25T11:54:00.287Z,45.57
2019-01-25T11:57:23.078Z,49.10
2019-01-25T12:00:46.252Z,50.83
2019-01-25T12:04:09.017Z,46.90
2019-01-25T12:07:31.405Z,47.93
2019-01-25T12:10:54.054Z,50.60
2019-01-25T12:14:16.250Z,50.93
2019-01-25T12:17:38.941Z,46.40
2019-01-25T12:21:01.484Z,45.77
2019-01-25T12:24:24.079Z,54.57
2019-01-25T12:27:46.657Z,51.00
2019-01-25T12:31:09.150Z,52.73
2019-01-25T12:34:31.645Z,53.57
2019-01-25T12:37:54.142Z,53.40
2019-01-25T12:41:16.730Z,46.43
2019-01-25T12:44:39.596Z,53.43
2019-01-25T12:48:02.509Z,48.80
2019-01-25T12:51:34.429Z,53.57
2019-01-25T12:54:56.821Z,50.37
2019-01-25T12:58:19.252Z,54.63
2019-01-25T13:01:41.668Z,58.47
2019-01-25T13:05:05.810Z,58.77
2019-01-25T13:08:28.252Z,56.30
2019-01-25T13:11:50.493Z,57.90
2019-01-25T13:15:13.092Z,56.40
2019-01-25T13:18:35.722Z,56.53
2019-01-25T13:21:58.156Z,60.20
2019-01-25T13:25:20.683Z,61.10
2019-01-25T13:28:43.109Z,59.47
2019-01-25T13:32:05.531Z,63.23
2019-01-25T13:35:28.332Z,55.27
2019-01-25T13:38:50.785Z,58.97
2019-01-25T13:42:13.417Z,64.83
2019-01-25T13:45:36.200Z,58.47
2019-01-25T13:48:59.184Z,57.63
2019-01-25T13:52:21.746Z,58.00
2019-01-25T13:55:44.466Z,58.13
2019-01-25T13:59:07.868Z,59.50
2019-01-25T14:02:31.041Z,66.93
2019-01-25T14:05:54.107Z,58.90
2019-01-25T14:09:16.969Z,63.27
2019-01-25T14:12:39.986Z,58.07
2019-01-25T14:16:02.633Z,61.63
2019-01-25T14:19:25.053Z,66.23
2019-01-25T14:22:47.836Z,63.13
2019-01-25T14:26:10.585Z,67.20
2019-01-25T14:29:32.721Z,59.90
2019-01-25T14:32:55.145Z,67.07
2019-01-25T14:36:17.573Z,65.47
2019-01-25T14:39:39.921Z,65.67
2019-01-25T14:43:02.400Z,67.80
2019-01-25T14:46:24.864Z,64.93
2019-01-25T14:49:47.368Z,57.00
2019-01-25T14:53:10.014Z,67.30
2019-01-25T14:56:32.456Z,58.30
2019-01-25T14:59:56.037Z,62.20
2019-01-25T15:03:18.795Z,62.50
2019-01-25T15:06:40.881Z,63.60
2019-01-25T15:10:03.884Z,69.23
2019-01-25T15:13:26.248Z,65.03
2019-01-25T15:16:48.329Z,68.93
2019-01-25T15:20:14.266Z,68.77
2019-01-25T15:23:36.780Z,72.53
2019-01-25T15:26:59.318Z,70.13
2019-01-25T15:30:28.006Z,65.23
2019-01-25T15:33:50.194Z,70.73
2019-01-25T15:37:12.742Z,111.63
2019-01-25T15:40:35.057Z,76.53
2019-01-25T15:43:57.784Z,74.07
2019-01-25T15:47:20.235Z,72.23
2019-01-25T15:50:43.384Z,70.33
2019-01-25T15:54:06.168Z,77.27
2019-01-25T15:57:28.859Z,74.47
2019-01-25T16:00:51.453Z,72.70
2019-01-25T16:04:13.648Z,61.07
2019-01-25T16:07:36.285Z,74.13
2019-01-25T16:10:58.705Z,65.50
2019-01-25T16:14:20.884Z,68.37
2019-01-25T16:17:43.520Z,80.10
2019-01-25T16:21:06.149Z,77.87
2019-01-25T16:24:28.659Z,75.83
2019-01-25T16:27:50.950Z,71.73
2019-01-25T16:31:13.315Z,72.20
2019-01-25T16:34:36.057Z,74.23
2019-01-25T16:37:59.130Z,74.20
2019-01-25T16:41:21.557Z,80.27
2019-01-25T16:44:43.985Z,73.30
2019-01-25T16:48:06.953Z,81.90
2019-01-25T16:51:29.593Z,72.77
2019-01-25T16:54:52.049Z,75.43
2019-01-25T16:58:14.461Z,81.17
2019-01-25T17:01:36.971Z,79.03
2019-01-25T17:04:59.307Z,78.43
2019-01-25T17:08:21.790Z,72.10
2019-01-25T17:11:44.376Z,80.87
2019-01-25T17:15:07.791Z,83.40
2019-01-25T17:18:29.831Z,83.50
2019-01-25T17:21:52.525Z,77.87
2019-01-25T17:25:15.176Z,82.20
2019-01-25T17:28:37.917Z,84.90
2019-01-25T17:32:00.618Z,82.00
2019-01-25T17:35:23.084Z,79.70
2019-01-25T17:38:45.890Z,80.77
2019-01-25T17:42:08.309Z,80.20
2019-01-25T17:45:30.839Z,77.77
2019-01-25T17:48:53.453Z,80.70
2019-01-25T17:52:15.759Z,83.63
2019-01-25T17:55:37.997Z,84.80
2019-01-25T17:59:00.212Z,81.27
2019-01-25T18:02:22.771Z,79.97
2019-01-25T18:05:45.248Z,80.37
2019-01-25T18:09:08.667Z,81.60
2019-01-25T18:12:31.175Z,83.30
2019-01-25T18:15:53.967Z,91.80
2019-01-25T18:19:16.809Z,89.23
2019-01-25T18:22:39.397Z,84.93
2019-01-25T18:26:14.320Z,83.60
2019-01-25T18:29:46.057Z,76.17
2019-01-25T18:33:08.670Z,81.33
2019-01-25T18:36:31.127Z,84.67
2019-01-25T18:39:53.697Z,91.00
2019-01-25T18:43:17.615Z,89.10
2019-01-25T18:46:40.290Z,85.33
2019-01-25T18:50:03.306Z,84.87
2019-01-25T18:53:25.909Z,84.27
2019-01-25T18:56:49.528Z,79.27
2019-01-25T19:00:16.113Z,86.33
2019-01-25T19:03:38.361Z,79.97
2019-01-25T19:07:00.770Z,83.43
2019-01-25T19:10:24.387Z,79.10
2019-01-25T19:13:46.884Z,74.07
2019-01-25T19:17:09.410Z,78.20
2019-01-25T19:20:32.238Z,88.10
2019-01-25T19:23:54.729Z,87.03
2019-01-25T19:27:17.824Z,80.30
2019-01-25T19:30:42.560Z,81.30
2019-01-25T19:34:05.279Z,85.20
2019-01-25T19:37:28.006Z,76.03
2019-01-25T19:40:50.852Z,83.00
2019-01-25T19:44:13.556Z,72.80
2019-01-25T19:47:37.003Z,71.90
2019-01-25T19:50:59.966Z,62.83
2019-01-25T19:54:23.012Z,59.80
2019-01-25T19:57:45.227Z,54.17
2019-01-25T20:01:08.320Z,51.60
2019-01-25T20:04:31.193Z,77.40
2019-01-25T20:07:53.793Z,70.90
2019-01-25T20:11:16.209Z,62.93
2019-01-25T20:14:38.848Z,52.70
2019-01-25T20:18:01.433Z,54.90
2019-01-25T20:21:24.113Z,60.93
2019-01-25T20:24:46.999Z,52.33
2019-01-25T20:28:11.844Z,59.30
2019-01-25T20:31:34.776Z,53.37
2019-01-25T20:34:57.296Z,56.10
2019-01-25T20:38:20.093Z,55.73
2019-01-25T20:41:42.424Z,60.03
2019-01-25T20:45:07.333Z,48.63
2019-01-25T20:48:29.801Z,47.57
2019-01-25T20:51:52.656Z,56.73
2019-01-25T20:55:16.933Z,49.43
2019-01-25T20:58:39.461Z,52.87
2019-01-25T21:02:02.217Z,53.60
2019-01-25T21:05:24.581Z,45.53
2019-01-25T21:08:46.858Z,49.60
2019-01-25T21:12:09.397Z,49.47
2019-01-25T21:15:35.423Z,48.83
2019-01-25T21:18:56.160Z,51.47
2019-01-25T21:22:18.925Z,46.17
2019-01-25T21:25:41.391Z,47.83
2019-01-25T21:29:04.264Z,47.60
2019-01-25T21:32:26.766Z,49.27
2019-01-25T21:35:49.242Z,50.93
2019-01-25T21:39:11.679Z,48.30
2019-01-25T21:42:34.259Z,46.83
2019-01-25T21:45:56.416Z,49.30
2019-01-25T21:49:18.832Z,49.47
2019-01-25T21:52:41.400Z,52.07
2019-01-25T21:56:03.952Z,51.33
2019-01-25T21:59:26.124Z,50.70
2019-01-25T22:02:48.437Z,55.17
2019-01-25T22:06:11.033Z,50.10
2019-01-25T22:09:36.656Z,52.13
2019-01-25T22:12:59.573Z,51.17
2019-01-25T22:16:22.029Z,47.43
2019-01-25T22:19:44.780Z,49.10
2019-01-25T22:23:07.143Z,51.70
2019-01-25T22:26:29.897Z,51.47
2019-01-25T22:29:52.104Z,43.27
2019-01-25T22:33:14.746Z,48.30
2019-01-25T22:36:37.212Z,45.97
2019-01-25T22:39:59.821Z,40.90
2019-01-25T22:43:22.607Z,51.53
2019-01-25T22:46:44.805Z,47.43
2019-01-25T22:50:10.123Z,52.53
2019-01-25T22:53:32.764Z,49.80
2019-01-25T22:56:54.995Z,51.63
2019-01-25T23:00:58.484Z,54.60
2019-01-25T23:04:52.117Z,56.43
2019-01-25T23:08:14.589Z,53.87
2019-01-25T23:11:37.350Z,52.40
2019-01-25T23:14:59.761Z,58.90
2019-01-25T23:18:22.119Z,64.27
2019-01-25T23:21:44.748Z,59.40
2019-01-25T23:25:08.263Z,62.10
2019-01-25T23:28:30.919Z,63.97
2019-01-25T23:31:53.644Z,61.63
2019-01-25T23:35:16.472Z,59.70
2019-01-25T23:38:38.582Z,63.03
2019-01-25T23:42:01.412Z,64.87
2019-01-25T23:45:23.916Z,53.03
2019-01-25T23:48:46.592Z,55.10
2019-01-25T23:52:09.385Z,61.67
2019-01-25T23:55:32.014Z,62.97
2019-01-25T23:58:54.528Z,69.67
